createdAt,value
2019-03-24T00:04:56.528Z,9.26
2019-03-24T00:10:01.731Z,9.21
2019-03-24T00:15:07.527Z,9.18
2019-03-24T00:20:12.486Z,9.15
2019-03-24T00:25:17.256Z,9.10
2019-03-24T00:30:22.077Z,9.11
2019-03-24T00:35:26.770Z,9.04
2019-03-24T00:40:31.676Z,9.05
2019-03-24T00:45:37.295Z,9.02
2019-03-24T00:50:42.388Z,9.02
2019-03-24T00:55:47.541Z,8.97
2019-03-24T01:00:52.643Z,8.91
2019-03-24T01:05:57.440Z,8.88
2019-03-24T01:11:02.075Z,8.82
2019-03-24T01:16:09.530Z,8.80
2019-03-24T01:21:14.295Z,8.84
2019-03-24T01:26:19.064Z,8.86
2019-03-24T01:31:23.892Z,8.87
2019-03-24T01:36:28.621Z,8.90
2019-03-24T01:41:33.453Z,8.94
2019-03-24T01:46:38.366Z,8.95
2019-03-24T01:51:43.271Z,8.87
2019-03-24T01:56:48.045Z,8.79
2019-03-24T02:01:52.849Z,8.70
2019-03-24T02:06:57.586Z,8.70
2019-03-24T02:12:02.541Z,8.77
2019-03-24T02:17:07.501Z,8.75
2019-03-24T02:22:12.221Z,8.77
2019-03-24T02:27:17.168Z,8.78
2019-03-24T02:32:21.923Z,8.79
2019-03-24T02:37:26.711Z,8.79
2019-03-24T02:42:31.393Z,8.84
2019-03-24T02:47:36.331Z,8.93
2019-03-24T02:52:41.186Z,8.98
2019-03-24T02:57:46.044Z,8.92
2019-03-24T03:02:50.881Z,9.00
2019-03-24T03:07:55.480Z,8.99
2019-03-24T03:13:00.261Z,9.03
2019-03-24T03:18:05.305Z,9.03
2019-03-24T03:23:10.130Z,9.01
2019-03-24T03:28:14.726Z,9.05
2019-03-24T03:33:19.546Z,8.85
2019-03-24T03:38:24.434Z,8.85
2019-03-24T03:43:29.095Z,9.11
2019-03-24T03:48:33.935Z,9.16
2019-03-24T03:53:38.680Z,9.14
2019-03-24T03:58:43.430Z,9.14
2019-03-24T04:03:48.021Z,9.13
2019-03-24T04:08:52.799Z,9.27
2019-03-24T04:13:57.550Z,9.30
2019-03-24T04:19:03.210Z,9.11
2019-03-24T04:24:07.845Z,9.06
2019-03-24T04:29:12.687Z,9.24
2019-03-24T04:34:17.248Z,9.32
2019-03-24T04:39:21.843Z,9.38
2019-03-24T04:44:26.613Z,8.74
2019-03-24T04:49:31.664Z,8.76
2019-03-24T04:54:36.508Z,8.71
2019-03-24T04:59:41.068Z,8.79
2019-03-24T05:04:45.744Z,9.10
2019-03-24T05:09:51.049Z,9.03
2019-03-24T05:14:55.785Z,9.25
2019-03-24T05:20:01.610Z,9.31
2019-03-24T05:25:07.379Z,9.21
2019-03-24T05:30:12.554Z,9.30
2019-03-24T05:35:17.425Z,9.33
2019-03-24T05:40:22.598Z,9.34
2019-03-24T05:45:27.294Z,9.31
2019-03-24T05:50:32.001Z,9.36
2019-03-24T05:55:36.794Z,9.35
2019-03-24T06:00:41.450Z,8.99
2019-03-24T06:05:46.284Z,8.83
2019-03-24T06:10:51.024Z,8.68
2019-03-24T06:15:55.739Z,8.75
2019-03-24T06:21:00.815Z,8.92
2019-03-24T06:26:05.667Z,8.97
2019-03-24T06:31:10.500Z,8.87
2019-03-24T06:36:15.644Z,8.67
2019-03-24T06:41:20.402Z,8.46
2019-03-24T06:46:25.449Z,8.34
2019-03-24T06:51:30.155Z,8.29
2019-03-24T06:56:34.977Z,8.28
2019-03-24T07:01:39.591Z,8.21
2019-03-24T07:06:44.742Z,8.27
2019-03-24T07:11:49.354Z,8.65
2019-03-24T07:16:54.004Z,8.94
2019-03-24T07:21:59.058Z,9.24
2019-03-24T07:27:03.809Z,9.43
2019-03-24T07:32:08.416Z,9.28
2019-03-24T07:37:13.459Z,9.40
2019-03-24T07:42:18.334Z,9.29
2019-03-24T07:47:23.095Z,8.91
2019-03-24T07:52:29.153Z,8.74
2019-03-24T07:57:34.220Z,8.66
2019-03-24T08:02:40.511Z,8.64
2019-03-24T08:07:47.159Z,8.61
2019-03-24T08:12:52.204Z,8.62
2019-03-24T08:17:57.150Z,8.63
2019-03-24T08:23:02.415Z,8.56
2019-03-24T08:28:07.205Z,8.46
2019-03-24T08:33:12.057Z,8.48
2019-03-24T08:38:17.042Z,8.49
2019-03-24T08:43:21.886Z,8.61
2019-03-24T08:48:26.644Z,8.81
2019-03-24T08:53:31.521Z,8.88
2019-03-24T08:58:36.349Z,9.01
2019-03-24T09:03:41.061Z,9.18
2019-03-24T09:08:46.115Z,9.29
2019-03-24T09:13:50.866Z,9.32
2019-03-24T09:18:55.592Z,9.27
2019-03-24T09:24:00.374Z,9.13
2019-03-24T09:29:05.279Z,9.10
2019-03-24T09:34:10.391Z,9.21
2019-03-24T09:39:15.285Z,9.41
2019-03-24T09:44:20.297Z,9.60
2019-03-24T09:49:25.466Z,9.80
2019-03-24T09:54:30.228Z,9.89
2019-03-24T09:59:35.069Z,10.15
2019-03-24T10:04:39.735Z,10.68
2019-03-24T10:09:44.555Z,11.66
2019-03-24T10:14:49.187Z,12.64
2019-03-24T10:19:54.024Z,12.81
2019-03-24T10:24:58.862Z,12.83
2019-03-24T10:30:03.937Z,12.95
2019-03-24T10:35:11.234Z,13.11
2019-03-24T10:40:16.184Z,13.26
2019-03-24T10:45:21.155Z,13.51
2019-03-24T10:50:26.079Z,13.61
2019-03-24T10:55:31.682Z,13.71
2019-03-24T11:00:39.742Z,13.68
2019-03-24T11:05:44.469Z,13.64
2019-03-24T11:10:49.191Z,13.77
2019-03-24T11:15:54.357Z,13.96
2019-03-24T11:20:59.146Z,13.54
2019-03-24T11:26:04.844Z,13.70
2019-03-24T11:31:09.706Z,14.09
2019-03-24T11:36:14.541Z,13.96
2019-03-24T11:41:19.439Z,13.94
2019-03-24T11:46:24.185Z,13.96
2019-03-24T11:51:28.924Z,14.16
2019-03-24T11:56:34.559Z,12.68
2019-03-24T12:01:39.596Z,12.21
2019-03-24T12:06:44.699Z,13.26
2019-03-24T12:11:49.695Z,12.85
2019-03-24T12:16:54.370Z,13.13
2019-03-24T12:21:59.281Z,12.30
2019-03-24T12:27:04.233Z,13.02
2019-03-24T12:32:08.999Z,13.55
2019-03-24T12:37:16.622Z,13.92
2019-03-24T12:42:21.410Z,13.66
2019-03-24T12:47:29.637Z,14.05
2019-03-24T12:52:34.332Z,14.38
2019-03-24T12:57:39.068Z,14.09
2019-03-24T13:02:43.781Z,13.75
2019-03-24T13:07:48.414Z,13.79
2019-03-24T13:12:52.970Z,13.80
2019-03-24T13:17:57.635Z,14.10
2019-03-24T13:23:03.940Z,14.09
2019-03-24T13:28:08.744Z,13.73
2019-03-24T13:33:13.911Z,13.72
2019-03-24T13:38:18.681Z,13.48
2019-03-24T13:43:23.436Z,13.61
2019-03-24T13:48:28.206Z,13.27
2019-03-24T13:53:33.094Z,13.44
2019-03-24T13:58:38.230Z,13.76
2019-03-24T14:03:44.785Z,13.56
2019-03-24T14:08:49.455Z,13.77
2019-03-24T14:13:54.305Z,13.25
2019-03-24T14:18:59.097Z,13.50
2019-03-24T14:24:04.240Z,12.99
2019-03-24T14:29:09.229Z,13.27
2019-03-24T14:34:14.450Z,12.94
2019-03-24T14:39:19.754Z,12.53
2019-03-24T14:44:25.006Z,12.71
2019-03-24T14:49:29.717Z,12.82
2019-03-24T14:54:34.595Z,12.83
2019-03-24T14:59:39.334Z,12.39
2019-03-24T15:04:44.097Z,11.92
2019-03-24T15:09:48.770Z,12.47
2019-03-24T15:14:53.405Z,11.41
2019-03-24T15:19:58.209Z,11.60
2019-03-24T15:25:03.057Z,11.45
2019-03-24T15:30:09.113Z,11.11
2019-03-24T15:35:14.221Z,11.45
2019-03-24T15:40:19.425Z,11.20
2019-03-24T15:45:25.771Z,10.52
2019-03-24T15:50:30.654Z,10.91
2019-03-24T15:55:35.755Z,10.16
2019-03-24T16:00:43.500Z,10.13
2019-03-24T16:05:48.459Z,9.90
2019-03-24T16:10:53.512Z,9.76
2019-03-24T16:15:58.764Z,9.60
2019-03-24T16:21:03.732Z,9.52
2019-03-24T16:26:09.575Z,9.25
2019-03-24T16:31:14.720Z,9.14
2019-03-24T16:36:19.961Z,8.92
2019-03-24T16:41:26.566Z,8.88
2019-03-24T16:46:31.469Z,8.91
2019-03-24T16:51:38.731Z,8.67
2019-03-24T16:56:42.878Z,8.33
2019-03-24T17:01:47.689Z,8.50
2019-03-24T17:06:52.435Z,8.32
2019-03-24T17:11:57.469Z,8.37
2019-03-24T17:17:02.224Z,8.11
2019-03-24T17:22:07.375Z,7.88
2019-03-24T17:27:12.209Z,7.84
2019-03-24T17:32:17.630Z,7.78
2019-03-24T17:37:25.394Z,7.81
2019-03-24T17:42:29.980Z,7.65
2019-03-24T17:47:34.879Z,7.59
2019-03-24T17:52:42.509Z,7.44
2019-03-24T17:57:47.221Z,7.49
2019-03-24T18:02:51.863Z,7.36
2019-03-24T18:07:56.557Z,7.24
2019-03-24T18:13:01.973Z,7.15
2019-03-24T18:18:07.034Z,7.21
2019-03-24T18:23:11.984Z,7.06
2019-03-24T18:28:16.599Z,7.10
2019-03-24T18:33:22.270Z,6.94
2019-03-24T18:38:27.099Z,7.00
2019-03-24T18:43:31.910Z,6.94
2019-03-24T18:48:37.050Z,6.85
2019-03-24T18:53:41.850Z,6.83
2019-03-24T18:58:46.655Z,6.54
2019-03-24T19:03:51.440Z,6.56
2019-03-24T19:08:57.514Z,6.63
2019-03-24T19:14:02.613Z,6.55
2019-03-24T19:19:07.504Z,6.52
2019-03-24T19:24:12.778Z,6.54
2019-03-24T19:29:17.575Z,6.57
2019-03-24T19:34:23.162Z,6.60
2019-03-24T19:39:28.518Z,6.53
2019-03-24T19:44:35.549Z,6.50
2019-03-24T19:49:40.360Z,6.53
2019-03-24T19:54:45.022Z,6.60
2019-03-24T19:59:49.739Z,6.59
2019-03-24T20:04:54.583Z,6.56
2019-03-24T20:09:59.489Z,6.59
2019-03-24T20:15:04.940Z,6.52
2019-03-24T20:20:09.838Z,6.57
2019-03-24T20:25:14.573Z,6.50
2019-03-24T20:30:19.426Z,6.49
2019-03-24T20:35:25.169Z,6.47
2019-03-24T20:40:31.246Z,6.46
2019-03-24T20:45:35.902Z,6.52
2019-03-24T20:50:41.266Z,6.43
2019-03-24T20:55:46.285Z,6.48
2019-03-24T21:00:51.326Z,6.64
2019-03-24T21:05:56.101Z,6.63
2019-03-24T21:11:00.731Z,6.43
2019-03-24T21:16:05.751Z,6.43
2019-03-24T21:21:10.681Z,6.52
2019-03-24T21:26:15.537Z,6.53
2019-03-24T21:31:20.526Z,6.61
2019-03-24T21:36:26.286Z,6.61
2019-03-24T21:41:31.032Z,6.61
2019-03-24T21:46:35.776Z,6.67
2019-03-24T21:51:40.445Z,6.72
2019-03-24T21:56:45.227Z,6.74
2019-03-24T22:01:50.282Z,6.73
2019-03-24T22:06:54.946Z,6.77
2019-03-24T22:11:59.749Z,6.82
2019-03-24T22:17:04.425Z,6.81
2019-03-24T22:22:09.386Z,6.86
2019-03-24T22:27:14.189Z,6.76
2019-03-24T22:32:18.895Z,6.70
2019-03-24T22:37:24.675Z,6.79
2019-03-24T22:42:29.377Z,6.85
2019-03-24T22:47:34.094Z,6.82
2019-03-24T22:52:38.858Z,6.83
2019-03-24T22:57:43.628Z,6.90
2019-03-24T23:02:48.350Z,6.92
2019-03-24T23:07:53.091Z,6.98
2019-03-24T23:12:57.844Z,6.98
2019-03-24T23:18:02.845Z,6.96
2019-03-24T23:23:07.717Z,6.90
2019-03-24T23:28:12.521Z,6.99
2019-03-24T23:33:17.511Z,6.99
2019-03-24T23:38:23.593Z,6.92
2019-03-24T23:43:28.326Z,6.88
2019-03-24T23:48:33.073Z,6.90
2019-03-24T23:53:37.861Z,6.94
2019-03-24T23:58:42.703Z,6.87
